sensor_id;sensor_type;location;lat;lon;timestamp;pressure;altitude;pressure_sealevel;temperature;humidity
74327;BME280;62745;51.060;13.786;2023-06-04T00:00:05;100661.63;;;9.48;66.37
74327;BME280;62745;51.060;13.786;2023-06-04T00:02:31;100654.38;;;9.33;66.81
74327;BME280;62745;51.060;13.786;2023-06-04T00:04:57;100663.53;;;9.31;66.91
74327;BME280;62745;51.060;13.786;2023-06-04T00:07:22;100661.06;;;9.21;66.75
74327;BME280;62745;51.060;13.786;2023-06-04T00:09:47;100657.16;;;9.09;67.33
74327;BME280;62745;51.060;13.786;2023-06-04T00:12:13;100662.13;;;9.04;67.22
74327;BME280;62745;51.060;13.786;2023-06-04T00:14:38;100659.16;;;8.99;67.77
74327;BME280;62745;51.060;13.786;2023-06-04T00:17:04;100652.34;;;8.96;67.81
74327;BME280;62745;51.060;13.786;2023-06-04T00:19:29;100656.69;;;8.89;68.55
74327;BME280;62745;51.060;13.786;2023-06-04T00:21:54;100659.53;;;8.96;69.22
74327;BME280;62745;51.060;13.786;2023-06-04T00:24:20;100653.66;;;9.00;68.32
74327;BME280;62745;51.060;13.786;2023-06-04T00:26:45;100656.69;;;8.97;68.58
74327;BME280;62745;51.060;13.786;2023-06-04T00:29:10;100651.22;;;8.91;67.78
74327;BME280;62745;51.060;13.786;2023-06-04T00:31:35;100648.22;;;8.86;67.67
74327;BME280;62745;51.060;13.786;2023-06-04T00:34:02;100646.03;;;8.89;66.77
74327;BME280;62745;51.060;13.786;2023-06-04T00:36:28;100651.06;;;8.84;66.97
74327;BME280;62745;51.060;13.786;2023-06-04T00:38:53;100644.91;;;8.84;67.14
74327;BME280;62745;51.060;13.786;2023-06-04T00:41:18;100640.06;;;8.87;67.88
74327;BME280;62745;51.060;13.786;2023-06-04T00:43:44;100646.19;;;8.96;67.88
74327;BME280;62745;51.060;13.786;2023-06-04T00:46:11;100638.22;;;8.88;68.08
74327;BME280;62745;51.060;13.786;2023-06-04T00:48:43;100643.94;;;8.77;68.21
74327;BME280;62745;51.060;13.786;2023-06-04T00:51:08;100641.44;;;8.67;67.96
74327;BME280;62745;51.060;13.786;2023-06-04T00:53:34;100636.81;;;8.53;69.14
74327;BME280;62745;51.060;13.786;2023-06-04T00:55:59;100633.34;;;8.36;69.75
74327;BME280;62745;51.060;13.786;2023-06-04T00:58:24;100633.00;;;8.39;70.53
74327;BME280;62745;51.060;13.786;2023-06-04T01:00:53;100625.00;;;8.39;69.70
74327;BME280;62745;51.060;13.786;2023-06-04T01:03:24;100631.41;;;8.85;69.08
74327;BME280;62745;51.060;13.786;2023-06-04T01:06:04;100633.22;;;8.85;68.88
74327;BME280;62745;51.060;13.786;2023-06-04T01:08:34;100628.72;;;8.93;69.06
74327;BME280;62745;51.060;13.786;2023-06-04T01:11:00;100634.34;;;8.98;68.18
74327;BME280;62745;51.060;13.786;2023-06-04T01:13:25;100633.94;;;9.18;68.68
74327;BME280;62745;51.060;13.786;2023-06-04T01:15:50;100643.66;;;9.11;68.28
74327;BME280;62745;51.060;13.786;2023-06-04T01:18:23;100630.78;;;8.75;68.79
74327;BME280;62745;51.060;13.786;2023-06-04T01:21:01;100632.44;;;8.68;69.35
74327;BME280;62745;51.060;13.786;2023-06-04T01:23:49;100630.06;;;8.89;69.68
74327;BME280;62745;51.060;13.786;2023-06-04T01:26:29;100632.13;;;8.63;70.02
74327;BME280;62745;51.060;13.786;2023-06-04T01:28:55;100635.31;;;8.58;70.28
74327;BME280;62745;51.060;13.786;2023-06-04T01:31:21;100630.31;;;8.63;70.48
74327;BME280;62745;51.060;13.786;2023-06-04T01:33:52;100631.44;;;8.77;69.83
74327;BME280;62745;51.060;13.786;2023-06-04T01:36:17;100630.28;;;8.71;69.78
74327;BME280;62745;51.060;13.786;2023-06-04T01:38:42;100641.81;;;8.48;70.53
74327;BME280;62745;51.060;13.786;2023-06-04T01:41:07;100630.19;;;8.24;71.72
74327;BME280;62745;51.060;13.786;2023-06-04T01:43:33;100637.50;;;8.14;72.24
74327;BME280;62745;51.060;13.786;2023-06-04T01:46:00;100636.00;;;8.11;72.53
74327;BME280;62745;51.060;13.786;2023-06-04T01:48:26;100641.00;;;8.06;72.11
74327;BME280;62745;51.060;13.786;2023-06-04T01:50:51;100640.13;;;8.06;72.59
74327;BME280;62745;51.060;13.786;2023-06-04T01:53:16;100637.16;;;8.01;72.79
74327;BME280;62745;51.060;13.786;2023-06-04T01:55:42;100639.66;;;8.10;73.31
74327;BME280;62745;51.060;13.786;2023-06-04T01:58:07;100626.69;;;7.91;74.00
74327;BME280;62745;51.060;13.786;2023-06-04T02:00:34;100623.19;;;7.74;75.05
74327;BME280;62745;51.060;13.786;2023-06-04T02:02:59;100627.97;;;7.71;74.66
74327;BME280;62745;51.060;13.786;2023-06-04T02:05:25;100634.31;;;7.78;75.42
74327;BME280;62745;51.060;13.786;2023-06-04T02:07:50;100631.97;;;7.67;75.63
74327;BME280;62745;51.060;13.786;2023-06-04T02:10:18;100635.94;;;7.54;75.70
74327;BME280;62745;51.060;13.786;2023-06-04T02:13:02;100643.91;;;7.46;76.59
74327;BME280;62745;51.060;13.786;2023-06-04T02:15:29;100638.03;;;7.35;77.00
74327;BME280;62745;51.060;13.786;2023-06-04T02:17:58;100638.34;;;7.23;77.78
74327;BME280;62745;51.060;13.786;2023-06-04T02:20:27;100641.63;;;7.17;78.85
74327;BME280;62745;51.060;13.786;2023-06-04T02:22:54;100644.72;;;7.05;78.83
74327;BME280;62745;51.060;13.786;2023-06-04T02:25:19;100645.72;;;6.96;78.36
74327;BME280;62745;51.060;13.786;2023-06-04T02:27:45;100644.31;;;6.83;78.86
74327;BME280;62745;51.060;13.786;2023-06-04T02:30:10;100641.38;;;6.94;78.45
74327;BME280;62745;51.060;13.786;2023-06-04T02:32:36;100642.78;;;7.15;78.55
74327;BME280;62745;51.060;13.786;2023-06-04T02:35:02;100645.50;;;7.31;78.02
74327;BME280;62745;51.060;13.786;2023-06-04T02:37:28;100643.72;;;7.40;76.94
74327;BME280;62745;51.060;13.786;2023-06-04T02:39:53;100642.53;;;7.34;77.41
74327;BME280;62745;51.060;13.786;2023-06-04T02:42:18;100650.47;;;7.26;77.52
74327;BME280;62745;51.060;13.786;2023-06-04T02:44:43;100646.00;;;7.27;78.10
74327;BME280;62745;51.060;13.786;2023-06-04T02:47:09;100649.44;;;7.19;77.69
74327;BME280;62745;51.060;13.786;2023-06-04T02:49:34;100647.94;;;7.16;77.25
74327;BME280;62745;51.060;13.786;2023-06-04T02:51:59;100646.72;;;7.53;74.93
74327;BME280;62745;51.060;13.786;2023-06-04T02:54:25;100650.97;;;7.96;75.02
74327;BME280;62745;51.060;13.786;2023-06-04T02:56:50;100659.91;;;7.79;74.69
74327;BME280;62745;51.060;13.786;2023-06-04T02:59:16;100664.88;;;7.66;75.34
74327;BME280;62745;51.060;13.786;2023-06-04T03:01:41;100653.03;;;7.44;75.02
74327;BME280;62745;51.060;13.786;2023-06-04T03:04:07;100641.84;;;7.24;76.23
74327;BME280;62745;51.060;13.786;2023-06-04T03:06:35;100648.78;;;7.17;76.46
74327;BME280;62745;51.060;13.786;2023-06-04T03:09:03;100653.03;;;7.02;76.49
74327;BME280;62745;51.060;13.786;2023-06-04T03:11:28;100657.09;;;6.88;77.91
74327;BME280;62745;51.060;13.786;2023-06-04T03:13:54;100660.41;;;6.82;78.74
74327;BME280;62745;51.060;13.786;2023-06-04T03:16:19;100654.22;;;6.73;79.33
74327;BME280;62745;51.060;13.786;2023-06-04T03:18:45;100661.50;;;6.71;79.58
74327;BME280;62745;51.060;13.786;2023-06-04T03:21:11;100658.47;;;6.66;79.88
74327;BME280;62745;51.060;13.786;2023-06-04T03:23:36;100665.47;;;6.67;79.47
74327;BME280;62745;51.060;13.786;2023-06-04T03:26:02;100667.28;;;6.67;79.64
74327;BME280;62745;51.060;13.786;2023-06-04T03:28:28;100669.63;;;6.70;79.65
74327;BME280;62745;51.060;13.786;2023-06-04T03:30:53;100673.53;;;7.17;78.49
74327;BME280;62745;51.060;13.786;2023-06-04T03:33:18;100666.88;;;7.13;77.59
74327;BME280;62745;51.060;13.786;2023-06-04T03:35:44;100664.28;;;6.96;78.34
74327;BME280;62745;51.060;13.786;2023-06-04T03:38:10;100663.84;;;7.50;77.42
74327;BME280;62745;51.060;13.786;2023-06-04T03:40:35;100674.34;;;7.60;77.11
74327;BME280;62745;51.060;13.786;2023-06-04T03:43:01;100671.44;;;7.37;77.37
74327;BME280;62745;51.060;13.786;2023-06-04T03:45:29;100666.75;;;7.23;77.96
74327;BME280;62745;51.060;13.786;2023-06-04T03:47:54;100672.34;;;7.12;78.38
74327;BME280;62745;51.060;13.786;2023-06-04T03:50:19;100680.63;;;7.09;79.02
74327;BME280;62745;51.060;13.786;2023-06-04T03:52:44;100680.63;;;7.09;79.65
74327;BME280;62745;51.060;13.786;2023-06-04T03:55:10;100687.22;;;7.05;79.46
74327;BME280;62745;51.060;13.786;2023-06-04T03:57:36;100685.06;;;7.00;79.88
74327;BME280;62745;51.060;13.786;2023-06-04T04:00:04;100679.47;;;7.11;79.30
74327;BME280;62745;51.060;13.786;2023-06-04T04:02:30;100674.41;;;7.26;78.57
74327;BME280;62745;51.060;13.786;2023-06-04T04:04:56;100685.22;;;7.33;78.20
74327;BME280;62745;51.060;13.786;2023-06-04T04:07:22;100686.81;;;7.68;77.24
74327;BME280;62745;51.060;13.786;2023-06-04T04:09:47;100687.31;;;7.63;76.86
74327;BME280;62745;51.060;13.786;2023-06-04T04:12:13;100691.50;;;7.82;75.96
74327;BME280;62745;51.060;13.786;2023-06-04T04:14:38;100683.38;;;8.00;76.40
74327;BME280;62745;51.060;13.786;2023-06-04T04:17:03;100687.22;;;8.22;75.64
74327;BME280;62745;51.060;13.786;2023-06-04T04:19:29;100683.22;;;8.18;75.82
74327;BME280;62745;51.060;13.786;2023-06-04T04:21:54;100678.25;;;8.14;76.78
74327;BME280;62745;51.060;13.786;2023-06-04T04:24:27;100686.06;;;8.08;76.60
74327;BME280;62745;51.060;13.786;2023-06-04T04:26:53;100685.22;;;7.99;76.55
74327;BME280;62745;51.060;13.786;2023-06-04T04:29:19;100688.69;;;7.92;77.55
74327;BME280;62745;51.060;13.786;2023-06-04T04:31:51;100692.00;;;7.85;77.99
74327;BME280;62745;51.060;13.786;2023-06-04T04:34:17;100695.16;;;7.81;78.12
74327;BME280;62745;51.060;13.786;2023-06-04T04:36:45;100678.88;;;7.84;78.22
74327;BME280;62745;51.060;13.786;2023-06-04T04:39:24;100689.00;;;7.89;78.11
74327;BME280;62745;51.060;13.786;2023-06-04T04:41:50;100690.53;;;7.91;78.58
74327;BME280;62745;51.060;13.786;2023-06-04T04:44:16;100689.19;;;7.95;78.51
74327;BME280;62745;51.060;13.786;2023-06-04T04:46:41;100685.53;;;8.04;78.53
74327;BME280;62745;51.060;13.786;2023-06-04T04:49:07;100688.38;;;8.11;77.35
74327;BME280;62745;51.060;13.786;2023-06-04T04:51:32;100686.53;;;8.20;77.44
74327;BME280;62745;51.060;13.786;2023-06-04T04:53:58;100686.53;;;8.20;76.28
74327;BME280;62745;51.060;13.786;2023-06-04T04:56:25;100689.56;;;8.25;76.33
74327;BME280;62745;51.060;13.786;2023-06-04T04:58:51;100693.22;;;8.32;75.62
74327;BME280;62745;51.060;13.786;2023-06-04T05:01:16;100687.94;;;8.40;75.35
74327;BME280;62745;51.060;13.786;2023-06-04T05:03:42;100690.72;;;8.63;74.27
74327;BME280;62745;51.060;13.786;2023-06-04T05:06:07;100694.19;;;8.80;73.83
74327;BME280;62745;51.060;13.786;2023-06-04T05:08:32;100697.19;;;8.85;73.07
74327;BME280;62745;51.060;13.786;2023-06-04T05:10:57;100691.50;;;8.88;74.27
74327;BME280;62745;51.060;13.786;2023-06-04T05:13:23;100699.75;;;9.17;74.51
74327;BME280;62745;51.060;13.786;2023-06-04T05:15:48;100693.88;;;9.22;73.73
74327;BME280;62745;51.060;13.786;2023-06-04T05:18:13;100699.34;;;9.37;72.64
74327;BME280;62745;51.060;13.786;2023-06-04T05:20:41;100693.03;;;9.29;72.13
74327;BME280;62745;51.060;13.786;2023-06-04T05:23:08;100696.53;;;9.30;72.27
74327;BME280;62745;51.060;13.786;2023-06-04T05:25:33;100698.00;;;9.41;72.69
74327;BME280;62745;51.060;13.786;2023-06-04T05:27:58;100690.34;;;9.38;72.86
74327;BME280;62745;51.060;13.786;2023-06-04T05:30:23;100705.25;;;9.55;72.64
74327;BME280;62745;51.060;13.786;2023-06-04T05:32:49;100707.41;;;9.59;71.76
74327;BME280;62745;51.060;13.786;2023-06-04T05:35:15;100713.53;;;9.68;70.90
74327;BME280;62745;51.060;13.786;2023-06-04T05:37:41;100710.50;;;9.71;70.19
74327;BME280;62745;51.060;13.786;2023-06-04T05:40:07;100705.50;;;9.76;69.56
74327;BME280;62745;51.060;13.786;2023-06-04T05:42:33;100705.44;;;9.84;68.70
74327;BME280;62745;51.060;13.786;2023-06-04T05:44:59;100712.41;;;9.93;69.29
74327;BME280;62745;51.060;13.786;2023-06-04T05:47:27;100703.63;;;10.08;68.89
74327;BME280;62745;51.060;13.786;2023-06-04T05:49:56;100708.03;;;10.23;68.37
74327;BME280;62745;51.060;13.786;2023-06-04T05:52:21;100707.28;;;10.52;66.95
74327;BME280;62745;51.060;13.786;2023-06-04T05:54:47;100698.94;;;10.70;66.85
74327;BME280;62745;51.060;13.786;2023-06-04T05:57:12;100698.75;;;10.72;66.49
74327;BME280;62745;51.060;13.786;2023-06-04T05:59:37;100697.22;;;10.77;66.44
74327;BME280;62745;51.060;13.786;2023-06-04T06:02:03;100708.00;;;10.84;66.03
74327;BME280;62745;51.060;13.786;2023-06-04T06:04:28;100705.25;;;10.92;66.02
74327;BME280;62745;51.060;13.786;2023-06-04T06:06:53;100705.34;;;10.99;65.24
74327;BME280;62745;51.060;13.786;2023-06-04T06:09:19;100698.78;;;11.01;65.03
74327;BME280;62745;51.060;13.786;2023-06-04T06:11:44;100708.84;;;11.14;64.76
74327;BME280;62745;51.060;13.786;2023-06-04T06:14:10;100711.03;;;11.25;62.36
74327;BME280;62745;51.060;13.786;2023-06-04T06:16:35;100708.28;;;11.33;60.47
74327;BME280;62745;51.060;13.786;2023-06-04T06:19:01;100706.22;;;11.50;60.33
74327;BME280;62745;51.060;13.786;2023-06-04T06:21:27;100711.13;;;11.61;61.17
74327;BME280;62745;51.060;13.786;2023-06-04T06:23:53;100711.38;;;11.81;61.33
74327;BME280;62745;51.060;13.786;2023-06-04T06:26:18;100711.00;;;11.84;59.85
74327;BME280;62745;51.060;13.786;2023-06-04T06:28:43;100714.19;;;11.94;59.93
74327;BME280;62745;51.060;13.786;2023-06-04T06:31:09;100715.47;;;11.98;59.19
74327;BME280;62745;51.060;13.786;2023-06-04T06:33:34;100705.34;;;12.15;58.38
74327;BME280;62745;51.060;13.786;2023-06-04T06:35:59;100715.03;;;12.38;57.94
74327;BME280;62745;51.060;13.786;2023-06-04T06:38:25;100725.09;;;12.57;57.24
74327;BME280;62745;51.060;13.786;2023-06-04T06:40:52;100728.03;;;12.62;56.22
74327;BME280;62745;51.060;13.786;2023-06-04T06:43:17;100720.53;;;12.79;55.92
74327;BME280;62745;51.060;13.786;2023-06-04T06:45:42;100720.81;;;12.90;54.83
74327;BME280;62745;51.060;13.786;2023-06-04T06:48:07;100720.28;;;13.02;55.14
74327;BME280;62745;51.060;13.786;2023-06-04T06:50:33;100722.00;;;13.16;55.06
74327;BME280;62745;51.060;13.786;2023-06-04T06:53:00;100722.47;;;13.19;54.05
74327;BME280;62745;51.060;13.786;2023-06-04T06:55:26;100722.75;;;13.31;54.25
74327;BME280;62745;51.060;13.786;2023-06-04T06:57:51;100724.69;;;13.44;53.53
74327;BME280;62745;51.060;13.786;2023-06-04T07:00:16;100720.72;;;13.40;52.96
74327;BME280;62745;51.060;13.786;2023-06-04T07:02:41;100724.09;;;13.48;52.97
74327;BME280;62745;51.060;13.786;2023-06-04T07:05:07;100721.88;;;13.65;53.81
74327;BME280;62745;51.060;13.786;2023-06-04T07:07:32;100722.78;;;13.92;53.18
74327;BME280;62745;51.060;13.786;2023-06-04T07:09:57;100720.75;;;14.01;52.46
74327;BME280;62745;51.060;13.786;2023-06-04T07:12:23;100719.13;;;14.20;51.83
74327;BME280;62745;51.060;13.786;2023-06-04T07:14:48;100724.94;;;14.30;51.98
74327;BME280;62745;51.060;13.786;2023-06-04T07:17:13;100714.16;;;14.23;50.82
74327;BME280;62745;51.060;13.786;2023-06-04T07:19:38;100712.75;;;14.40;50.06
74327;BME280;62745;51.060;13.786;2023-06-04T07:22:04;100711.28;;;14.38;50.04
74327;BME280;62745;51.060;13.786;2023-06-04T07:24:29;100711.69;;;14.41;49.92
74327;BME280;62745;51.060;13.786;2023-06-04T07:26:54;100703.47;;;14.56;49.45
74327;BME280;62745;51.060;13.786;2023-06-04T07:29:19;100715.03;;;14.90;49.85
74327;BME280;62745;51.060;13.786;2023-06-04T07:31:45;100709.63;;;15.10;49.56
74327;BME280;62745;51.060;13.786;2023-06-04T07:34:10;100706.03;;;15.35;48.12
74327;BME280;62745;51.060;13.786;2023-06-04T07:36:35;100706.38;;;15.52;48.35
74327;BME280;62745;51.060;13.786;2023-06-04T07:39:01;100707.81;;;15.55;47.69
74327;BME280;62745;51.060;13.786;2023-06-04T07:41:28;100712.63;;;15.46;47.27
74327;BME280;62745;51.060;13.786;2023-06-04T07:43:53;100706.59;;;15.64;46.97
74327;BME280;62745;51.060;13.786;2023-06-04T07:46:18;100701.13;;;15.77;46.63
74327;BME280;62745;51.060;13.786;2023-06-04T07:48:44;100707.78;;;16.13;46.17
74327;BME280;62745;51.060;13.786;2023-06-04T07:51:10;100705.78;;;16.27;46.22
74327;BME280;62745;51.060;13.786;2023-06-04T07:53:36;100706.44;;;16.53;45.87
74327;BME280;62745;51.060;13.786;2023-06-04T07:56:03;100707.69;;;16.51;45.53
74327;BME280;62745;51.060;13.786;2023-06-04T07:58:28;100706.97;;;16.69;45.50
74327;BME280;62745;51.060;13.786;2023-06-04T08:00:54;100705.19;;;16.81;43.57
74327;BME280;62745;51.060;13.786;2023-06-04T08:03:19;100701.09;;;16.97;44.15
74327;BME280;62745;51.060;13.786;2023-06-04T08:05:45;100702.28;;;17.01;43.80
74327;BME280;62745;51.060;13.786;2023-06-04T08:08:10;100692.78;;;17.35;44.53
74327;BME280;62745;51.060;13.786;2023-06-04T08:10:36;100694.66;;;17.53;42.61
74327;BME280;62745;51.060;13.786;2023-06-04T08:13:01;100693.66;;;17.84;42.36
74327;BME280;62745;51.060;13.786;2023-06-04T08:15:26;100692.66;;;18.08;39.52
74327;BME280;62745;51.060;13.786;2023-06-04T08:17:52;100686.72;;;18.29;39.84
74327;BME280;62745;51.060;13.786;2023-06-04T08:20:17;100684.06;;;18.53;39.85
74327;BME280;62745;51.060;13.786;2023-06-04T08:22:42;100686.56;;;18.78;38.72
74327;BME280;62745;51.060;13.786;2023-06-04T08:25:08;100684.13;;;18.65;38.44
74327;BME280;62745;51.060;13.786;2023-06-04T08:27:34;100682.44;;;18.63;38.62
74327;BME280;62745;51.060;13.786;2023-06-04T08:29:59;100677.03;;;18.75;38.24
74327;BME280;62745;51.060;13.786;2023-06-04T08:32:25;100682.91;;;18.96;36.97
74327;BME280;62745;51.060;13.786;2023-06-04T08:34:50;100684.31;;;19.10;37.58
74327;BME280;62745;51.060;13.786;2023-06-04T08:37:17;100682.41;;;19.34;36.36
74327;BME280;62745;51.060;13.786;2023-06-04T08:39:45;100679.13;;;19.32;35.08
74327;BME280;62745;51.060;13.786;2023-06-04T08:42:17;100669.84;;;19.16;32.50
74327;BME280;62745;51.060;13.786;2023-06-04T08:44:46;100680.78;;;19.21;33.79
74327;BME280;62745;51.060;13.786;2023-06-04T08:47:15;100670.44;;;19.18;34.59
74327;BME280;62745;51.060;13.786;2023-06-04T08:49:43;100679.78;;;19.50;33.75
74327;BME280;62745;51.060;13.786;2023-06-04T08:52:10;100677.09;;;19.79;30.78
74327;BME280;62745;51.060;13.786;2023-06-04T08:54:36;100676.91;;;20.14;31.12
74327;BME280;62745;51.060;13.786;2023-06-04T08:57:03;100663.59;;;20.12;31.39
74327;BME280;62745;51.060;13.786;2023-06-04T08:59:28;100669.81;;;20.58;32.09
74327;BME280;62745;51.060;13.786;2023-06-04T09:01:54;100669.50;;;20.55;30.54
74327;BME280;62745;51.060;13.786;2023-06-04T09:04:20;100667.72;;;20.82;31.11
74327;BME280;62745;51.060;13.786;2023-06-04T09:06:46;100660.53;;;20.93;30.82
74327;BME280;62745;51.060;13.786;2023-06-04T09:09:13;100661.63;;;21.14;31.17
74327;BME280;62745;51.060;13.786;2023-06-04T09:12:01;100677.09;;;21.30;28.64
74327;BME280;62745;51.060;13.786;2023-06-04T09:14:28;100673.19;;;21.43;29.08
74327;BME280;62745;51.060;13.786;2023-06-04T09:16:55;100672.91;;;21.44;28.95
74327;BME280;62745;51.060;13.786;2023-06-04T09:19:23;100676.34;;;21.56;28.10
74327;BME280;62745;51.060;13.786;2023-06-04T09:21:59;100678.09;;;21.46;27.46
74327;BME280;62745;51.060;13.786;2023-06-04T09:24:44;100683.41;;;21.57;27.56
74327;BME280;62745;51.060;13.786;2023-06-04T09:27:20;100680.00;;;21.67;27.52
74327;BME280;62745;51.060;13.786;2023-06-04T09:29:49;100676.22;;;21.68;27.95
74327;BME280;62745;51.060;13.786;2023-06-04T09:32:23;100677.91;;;21.30;27.91
74327;BME280;62745;51.060;13.786;2023-06-04T09:34:48;100681.47;;;21.53;27.94
74327;BME280;62745;51.060;13.786;2023-06-04T09:37:14;100685.09;;;21.85;27.40
74327;BME280;62745;51.060;13.786;2023-06-04T09:39:42;100679.47;;;22.19;27.54
74327;BME280;62745;51.060;13.786;2023-06-04T09:42:07;100678.66;;;22.18;26.89
74327;BME280;62745;51.060;13.786;2023-06-04T09:44:42;100674.97;;;22.35;28.27
74327;BME280;62745;51.060;13.786;2023-06-04T09:47:08;100679.47;;;22.19;29.29
74327;BME280;62745;51.060;13.786;2023-06-04T09:49:43;100674.47;;;22.11;28.21
74327;BME280;62745;51.060;13.786;2023-06-04T09:52:10;100682.31;;;22.34;27.45
74327;BME280;62745;51.060;13.786;2023-06-04T09:54:36;100671.94;;;22.04;26.72
74327;BME280;62745;51.060;13.786;2023-06-04T09:57:03;100668.66;;;22.02;27.16
74327;BME280;62745;51.060;13.786;2023-06-04T09:59:32;100670.84;;;22.32;27.53
74327;BME280;62745;51.060;13.786;2023-06-04T10:02:03;100663.22;;;22.66;27.92
74327;BME280;62745;51.060;13.786;2023-06-04T10:04:29;100659.81;;;22.49;27.83
74327;BME280;62745;51.060;13.786;2023-06-04T10:06:55;100667.81;;;22.61;27.08
74327;BME280;62745;51.060;13.786;2023-06-04T10:09:22;100669.44;;;22.62;27.01
74327;BME280;62745;51.060;13.786;2023-06-04T10:11:56;100673.66;;;22.42;26.25
74327;BME280;62745;51.060;13.786;2023-06-04T10:14:23;100657.72;;;22.56;25.25
74327;BME280;62745;51.060;13.786;2023-06-04T10:16:51;100654.00;;;22.72;26.32
74327;BME280;62745;51.060;13.786;2023-06-04T10:19:18;100670.06;;;23.16;26.83
74327;BME280;62745;51.060;13.786;2023-06-04T10:21:43;100657.38;;;23.42;26.45
74327;BME280;62745;51.060;13.786;2023-06-04T10:24:09;100656.56;;;23.47;24.92
74327;BME280;62745;51.060;13.786;2023-06-04T10:26:35;100654.47;;;23.64;25.92
74327;BME280;62745;51.060;13.786;2023-06-04T10:29:02;100658.09;;;23.17;26.24
74327;BME280;62745;51.060;13.786;2023-06-04T10:31:28;100656.03;;;23.39;26.62
74327;BME280;62745;51.060;13.786;2023-06-04T10:33:55;100656.97;;;23.81;26.46
74327;BME280;62745;51.060;13.786;2023-06-04T10:36:22;100662.47;;;23.86;25.60
74327;BME280;62745;51.060;13.786;2023-06-04T10:38:54;100658.63;;;23.92;25.01
74327;BME280;62745;51.060;13.786;2023-06-04T10:41:20;100659.72;;;23.96;25.51
74327;BME280;62745;51.060;13.786;2023-06-04T10:43:47;100667.44;;;24.29;25.10
74327;BME280;62745;51.060;13.786;2023-06-04T10:46:17;100664.13;;;24.12;23.11
74327;BME280;62745;51.060;13.786;2023-06-04T10:48:49;100660.28;;;22.73;25.05
74327;BME280;62745;51.060;13.786;2023-06-04T10:51:37;100647.22;;;22.75;26.42
74327;BME280;62745;51.060;13.786;2023-06-04T10:54:02;100649.31;;;23.67;25.47
74327;BME280;62745;51.060;13.786;2023-06-04T10:56:33;100660.00;;;23.99;24.80
74327;BME280;62745;51.060;13.786;2023-06-04T10:58:59;100658.09;;;23.95;23.73
74327;BME280;62745;51.060;13.786;2023-06-04T11:01:28;100655.03;;;23.66;24.27
74327;BME280;62745;51.060;13.786;2023-06-04T11:03:55;100649.66;;;24.63;25.64
74327;BME280;62745;51.060;13.786;2023-06-04T11:06:21;100654.56;;;24.76;24.69
74327;BME280;62745;51.060;13.786;2023-06-04T11:08:47;100646.06;;;24.82;24.14
74327;BME280;62745;51.060;13.786;2023-06-04T11:11:16;100652.69;;;24.30;25.39
74327;BME280;62745;51.060;13.786;2023-06-04T11:13:42;100649.13;;;24.55;24.67
74327;BME280;62745;51.060;13.786;2023-06-04T11:16:15;100641.75;;;24.56;24.43
74327;BME280;62745;51.060;13.786;2023-06-04T11:18:41;100650.19;;;24.65;24.56
74327;BME280;62745;51.060;13.786;2023-06-04T11:21:06;100645.00;;;24.68;24.99
74327;BME280;62745;51.060;13.786;2023-06-04T11:23:33;100641.78;;;25.41;24.50
74327;BME280;62745;51.060;13.786;2023-06-04T11:25:58;100649.31;;;25.05;24.62
74327;BME280;62745;51.060;13.786;2023-06-04T11:28:23;100631.84;;;24.80;25.62
74327;BME280;62745;51.060;13.786;2023-06-04T11:31:02;100632.44;;;24.62;25.74
74327;BME280;62745;51.060;13.786;2023-06-04T11:33:28;100647.41;;;25.05;24.05
74327;BME280;62745;51.060;13.786;2023-06-04T11:35:54;100643.50;;;25.27;23.70
74327;BME280;62745;51.060;13.786;2023-06-04T11:38:19;100636.06;;;25.32;23.87
74327;BME280;62745;51.060;13.786;2023-06-04T11:40:55;100639.47;;;25.63;24.21
74327;BME280;62745;51.060;13.786;2023-06-04T11:43:20;100630.50;;;25.53;24.64
74327;BME280;62745;51.060;13.786;2023-06-04T11:45:45;100637.06;;;25.57;24.57
74327;BME280;62745;51.060;13.786;2023-06-04T11:48:11;100636.69;;;25.78;24.58
74327;BME280;62745;51.060;13.786;2023-06-04T11:50:36;100630.78;;;25.56;23.60
74327;BME280;62745;51.060;13.786;2023-06-04T11:53:02;100637.78;;;25.23;23.86
74327;BME280;62745;51.060;13.786;2023-06-04T11:55:28;100639.06;;;25.41;23.67
74327;BME280;62745;51.060;13.786;2023-06-04T11:57:54;100638.09;;;25.71;23.56
74327;BME280;62745;51.060;13.786;2023-06-04T12:00:19;100643.88;;;26.43;23.01
74327;BME280;62745;51.060;13.786;2023-06-04T12:02:53;100635.66;;;26.72;22.11
74327;BME280;62745;51.060;13.786;2023-06-04T12:05:20;100636.81;;;26.31;21.85
74327;BME280;62745;51.060;13.786;2023-06-04T12:07:46;100634.88;;;26.37;22.09
74327;BME280;62745;51.060;13.786;2023-06-04T12:10:12;100634.09;;;26.89;22.20
74327;BME280;62745;51.060;13.786;2023-06-04T12:12:38;100632.84;;;27.06;21.65
74327;BME280;62745;51.060;13.786;2023-06-04T12:15:04;100635.81;;;25.88;22.66
74327;BME280;62745;51.060;13.786;2023-06-04T12:17:31;100630.25;;;26.90;21.78
74327;BME280;62745;51.060;13.786;2023-06-04T12:19:56;100632.50;;;27.31;21.26
74327;BME280;62745;51.060;13.786;2023-06-04T12:22:24;100627.31;;;27.72;21.26
74327;BME280;62745;51.060;13.786;2023-06-04T12:24:51;100619.63;;;28.07;21.52
74327;BME280;62745;51.060;13.786;2023-06-04T12:27:19;100628.06;;;28.29;20.92
74327;BME280;62745;51.060;13.786;2023-06-04T12:32:25;100632.88;;;28.18;20.64
74327;BME280;62745;51.060;13.786;2023-06-04T12:34:50;100630.06;;;27.72;21.52
74327;BME280;62745;51.060;13.786;2023-06-04T12:37:16;100629.88;;;27.82;21.29
74327;BME280;62745;51.060;13.786;2023-06-04T12:39:41;100626.94;;;28.30;20.37
74327;BME280;62745;51.060;13.786;2023-06-04T12:42:08;100620.25;;;28.96;19.85
74327;BME280;62745;51.060;13.786;2023-06-04T12:44:40;100617.56;;;29.32;18.61